sensor_id;sensor_type;location;lat;lon;timestamp;temperature;humidity
8178;DHT22;4130;48.740;9.132;2023-05-10T00:01:35;13.40;99.90
8178;DHT22;4130;48.740;9.132;2023-05-10T00:04:01;13.00;99.90
8178;DHT22;4130;48.740;9.132;2023-05-10T00:06:28;13.00;99.90
8178;DHT22;4130;48.740;9.132;2023-05-10T00:08:55;13.00;99.90
8178;DHT22;4130;48.740;9.132;2023-05-10T00:11:23;12.90;99.90
8178;DHT22;4130;48.740;9.132;2023-05-10T00:13:50;13.30;99.90
8178;DHT22;4130;48.740;9.132;2023-05-10T00:16:19;12.90;99.90
8178;DHT22;4130;48.740;9.132;2023-05-10T00:18:47;12.80;99.90
8178;DHT22;4130;48.740;9.132;2023-05-10T00:21:14;12.80;99.90
8178;DHT22;4130;48.740;9.132;2023-05-10T00:23:40;12.60;99.90
8178;DHT22;4130;48.740;9.132;2023-05-10T00:26:07;12.60;99.90
8178;DHT22;4130;48.740;9.132;2023-05-10T00:28:35;12.60;99.90
8178;DHT22;4130;48.740;9.132;2023-05-10T00:31:02;12.60;99.90
8178;DHT22;4130;48.740;9.132;2023-05-10T00:33:29;12.50;99.90
8178;DHT22;4130;48.740;9.132;2023-05-10T00:35:56;12.50;99.90
8178;DHT22;4130;48.740;9.132;2023-05-10T00:38:22;12.50;99.90
8178;DHT22;4130;48.740;9.132;2023-05-10T00:40:50;13.50;99.90
8178;DHT22;4130;48.740;9.132;2023-05-10T00:43:16;12.40;99.90
8178;DHT22;4130;48.740;9.132;2023-05-10T00:45:44;12.40;99.90
8178;DHT22;4130;48.740;9.132;2023-05-10T00:48:12;12.30;99.90
8178;DHT22;4130;48.740;9.132;2023-05-10T00:50:39;12.30;99.90
8178;DHT22;4130;48.740;9.132;2023-05-10T00:53:07;12.30;99.90
8178;DHT22;4130;48.740;9.132;2023-05-10T00:55:36;12.20;99.90
8178;DHT22;4130;48.740;9.132;2023-05-10T00:58:03;12.10;99.90
8178;DHT22;4130;48.740;9.132;2023-05-10T01:00:30;12.10;99.90
8178;DHT22;4130;48.740;9.132;2023-05-10T01:03:02;12.10;99.90
8178;DHT22;4130;48.740;9.132;2023-05-10T01:05:29;12.10;99.90
8178;DHT22;4130;48.740;9.132;2023-05-10T01:07:57;12.10;99.90
8178;DHT22;4130;48.740;9.132;2023-05-10T01:10:24;12.00;99.90
8178;DHT22;4130;48.740;9.132;2023-05-10T01:12:50;12.10;99.90
8178;DHT22;4130;48.740;9.132;2023-05-10T01:15:18;12.00;99.90
8178;DHT22;4130;48.740;9.132;2023-05-10T01:17:46;12.00;99.90
8178;DHT22;4130;48.740;9.132;2023-05-10T01:20:15;12.00;99.90
8178;DHT22;4130;48.740;9.132;2023-05-10T01:23:00;11.90;99.90
8178;DHT22;4130;48.740;9.132;2023-05-10T01:25:53;11.90;99.90
8178;DHT22;4130;48.740;9.132;2023-05-10T01:28:46;11.90;99.90
8178;DHT22;4130;48.740;9.132;2023-05-10T01:31:22;11.90;99.90
8178;DHT22;4130;48.740;9.132;2023-05-10T01:33:58;11.80;99.90
8178;DHT22;4130;48.740;9.132;2023-05-10T01:36:30;11.80;99.90
8178;DHT22;4130;48.740;9.132;2023-05-10T01:39:02;11.70;99.90
8178;DHT22;4130;48.740;9.132;2023-05-10T01:41:40;11.70;99.90
8178;DHT22;4130;48.740;9.132;2023-05-10T01:44:16;11.70;99.90
8178;DHT22;4130;48.740;9.132;2023-05-10T01:46:49;11.80;99.90
8178;DHT22;4130;48.740;9.132;2023-05-10T01:49:24;11.70;99.90
8178;DHT22;4130;48.740;9.132;2023-05-10T01:51:54;11.70;99.90
8178;DHT22;4130;48.740;9.132;2023-05-10T01:54:27;11.70;99.90
8178;DHT22;4130;48.740;9.132;2023-05-10T01:56:58;11.70;99.90
8178;DHT22;4130;48.740;9.132;2023-05-10T01:59:30;11.60;99.90
8178;DHT22;4130;48.740;9.132;2023-05-10T02:02:02;11.60;99.90
8178;DHT22;4130;48.740;9.132;2023-05-10T02:04:33;11.60;99.90
8178;DHT22;4130;48.740;9.132;2023-05-10T02:07:02;11.50;99.90
8178;DHT22;4130;48.740;9.132;2023-05-10T02:09:30;11.60;99.90
8178;DHT22;4130;48.740;9.132;2023-05-10T02:12:01;11.60;99.90
8178;DHT22;4130;48.740;9.132;2023-05-10T02:14:30;11.60;99.90
8178;DHT22;4130;48.740;9.132;2023-05-10T02:16:59;11.50;99.90
8178;DHT22;4130;48.740;9.132;2023-05-10T02:19:27;11.50;99.90
8178;DHT22;4130;48.740;9.132;2023-05-10T02:21:57;11.50;99.90
8178;DHT22;4130;48.740;9.132;2023-05-10T02:24:25;11.50;99.90
8178;DHT22;4130;48.740;9.132;2023-05-10T02:26:54;11.40;99.90
8178;DHT22;4130;48.740;9.132;2023-05-10T02:29:22;11.40;99.90
8178;DHT22;4130;48.740;9.132;2023-05-10T02:31:52;12.40;99.90
8178;DHT22;4130;48.740;9.132;2023-05-10T02:34:20;11.30;99.90
8178;DHT22;4130;48.740;9.132;2023-05-10T02:36:48;11.40;99.90
8178;DHT22;4130;48.740;9.132;2023-05-10T02:39:17;11.40;99.90
8178;DHT22;4130;48.740;9.132;2023-05-10T02:41:46;11.40;99.90
8178;DHT22;4130;48.740;9.132;2023-05-10T02:44:14;11.50;99.90
8178;DHT22;4130;48.740;9.132;2023-05-10T02:46:41;11.50;99.90
8178;DHT22;4130;48.740;9.132;2023-05-10T02:49:08;11.80;99.90
8178;DHT22;4130;48.740;9.132;2023-05-10T02:51:40;11.40;99.90
8178;DHT22;4130;48.740;9.132;2023-05-10T02:54:11;11.50;99.90
8178;DHT22;4130;48.740;9.132;2023-05-10T02:56:46;11.30;99.90
8178;DHT22;4130;48.740;9.132;2023-05-10T02:59:15;11.30;99.90
8178;DHT22;4130;48.740;9.132;2023-05-10T03:01:41;11.30;99.90
8178;DHT22;4130;48.740;9.132;2023-05-10T03:04:08;11.30;99.90
8178;DHT22;4130;48.740;9.132;2023-05-10T03:06:35;11.30;99.90
8178;DHT22;4130;48.740;9.132;2023-05-10T03:09:02;11.30;99.90
8178;DHT22;4130;48.740;9.132;2023-05-10T03:11:43;11.30;99.90
8178;DHT22;4130;48.740;9.132;2023-05-10T03:14:21;11.40;99.90
8178;DHT22;4130;48.740;9.132;2023-05-10T03:16:54;11.40;99.90
8178;DHT22;4130;48.740;9.132;2023-05-10T03:19:26;11.50;99.90
8178;DHT22;4130;48.740;9.132;2023-05-10T03:21:56;11.50;99.90
8178;DHT22;4130;48.740;9.132;2023-05-10T03:24:27;11.50;99.90
8178;DHT22;4130;48.740;9.132;2023-05-10T03:26:59;11.70;99.90
8178;DHT22;4130;48.740;9.132;2023-05-10T03:29:29;11.60;99.90
8178;DHT22;4130;48.740;9.132;2023-05-10T03:31:57;11.60;99.90
8178;DHT22;4130;48.740;9.132;2023-05-10T03:34:29;11.60;99.90
8178;DHT22;4130;48.740;9.132;2023-05-10T03:36:57;11.60;99.90
8178;DHT22;4130;48.740;9.132;2023-05-10T03:39:25;11.70;99.90
8178;DHT22;4130;48.740;9.132;2023-05-10T03:41:56;11.70;99.90
8178;DHT22;4130;48.740;9.132;2023-05-10T03:44:23;11.70;99.90
8178;DHT22;4130;48.740;9.132;2023-05-10T03:46:50;11.70;99.90
8178;DHT22;4130;48.740;9.132;2023-05-10T03:49:17;11.80;99.90
8178;DHT22;4130;48.740;9.132;2023-05-10T03:51:44;11.70;99.90
8178;DHT22;4130;48.740;9.132;2023-05-10T03:54:10;11.80;99.90
8178;DHT22;4130;48.740;9.132;2023-05-10T03:56:37;11.70;99.90
8178;DHT22;4130;48.740;9.132;2023-05-10T03:59:06;11.70;99.90
8178;DHT22;4130;48.740;9.132;2023-05-10T04:01:34;11.80;99.90
8178;DHT22;4130;48.740;9.132;2023-05-10T04:04:01;11.80;99.90
8178;DHT22;4130;48.740;9.132;2023-05-10T04:06:28;11.90;99.90
8178;DHT22;4130;48.740;9.132;2023-05-10T04:08:55;11.90;99.90
8178;DHT22;4130;48.740;9.132;2023-05-10T04:11:25;11.80;99.90
8178;DHT22;4130;48.740;9.132;2023-05-10T04:13:52;11.80;99.90
8178;DHT22;4130;48.740;9.132;2023-05-10T04:16:20;11.80;99.90
8178;DHT22;4130;48.740;9.132;2023-05-10T04:18:47;11.80;99.90
8178;DHT22;4130;48.740;9.132;2023-05-10T04:21:15;11.70;99.90
8178;DHT22;4130;48.740;9.132;2023-05-10T04:23:42;11.70;99.90
8178;DHT22;4130;48.740;9.132;2023-05-10T04:26:08;11.60;99.90
8178;DHT22;4130;48.740;9.132;2023-05-10T04:28:43;11.70;99.90
8178;DHT22;4130;48.740;9.132;2023-05-10T04:31:12;11.70;99.90
8178;DHT22;4130;48.740;9.132;2023-05-10T04:33:40;11.70;99.90
8178;DHT22;4130;48.740;9.132;2023-05-10T04:36:07;11.70;99.90
8178;DHT22;4130;48.740;9.132;2023-05-10T04:38:34;11.70;99.90
8178;DHT22;4130;48.740;9.132;2023-05-10T04:41:04;11.70;99.90
8178;DHT22;4130;48.740;9.132;2023-05-10T04:43:32;11.70;99.90
8178;DHT22;4130;48.740;9.132;2023-05-10T04:46:01;11.70;99.90
8178;DHT22;4130;48.740;9.132;2023-05-10T04:48:29;11.90;99.90
8178;DHT22;4130;48.740;9.132;2023-05-10T04:50:57;11.70;99.90
8178;DHT22;4130;48.740;9.132;2023-05-10T04:53:26;11.70;99.90
8178;DHT22;4130;48.740;9.132;2023-05-10T04:55:53;11.80;99.90
8178;DHT22;4130;48.740;9.132;2023-05-10T04:58:20;11.80;99.90
8178;DHT22;4130;48.740;9.132;2023-05-10T05:00:48;11.90;99.90
8178;DHT22;4130;48.740;9.132;2023-05-10T05:03:15;11.80;99.90
8178;DHT22;4130;48.740;9.132;2023-05-10T05:05:43;11.90;99.90
8178;DHT22;4130;48.740;9.132;2023-05-10T05:08:14;11.90;99.90
8178;DHT22;4130;48.740;9.132;2023-05-10T05:10:41;12.00;99.90
8178;DHT22;4130;48.740;9.132;2023-05-10T05:13:08;12.10;99.90
8178;DHT22;4130;48.740;9.132;2023-05-10T05:15:34;12.10;99.90
8178;DHT22;4130;48.740;9.132;2023-05-10T05:18:02;12.20;99.90
8178;DHT22;4130;48.740;9.132;2023-05-10T05:20:32;12.20;99.90
8178;DHT22;4130;48.740;9.132;2023-05-10T05:23:00;12.20;99.90
8178;DHT22;4130;48.740;9.132;2023-05-10T05:25:29;12.30;99.90
8178;DHT22;4130;48.740;9.132;2023-05-10T05:27:56;12.30;99.90
8178;DHT22;4130;48.740;9.132;2023-05-10T05:30:22;12.40;99.90
8178;DHT22;4130;48.740;9.132;2023-05-10T05:32:49;12.40;99.90
8178;DHT22;4130;48.740;9.132;2023-05-10T05:35:16;12.40;99.90
8178;DHT22;4130;48.740;9.132;2023-05-10T05:37:43;12.50;99.90
8178;DHT22;4130;48.740;9.132;2023-05-10T05:40:12;13.60;99.90
8178;DHT22;4130;48.740;9.132;2023-05-10T05:42:42;12.50;99.90
8178;DHT22;4130;48.740;9.132;2023-05-10T05:45:09;12.60;99.90
8178;DHT22;4130;48.740;9.132;2023-05-10T05:47:40;12.60;99.90
8178;DHT22;4130;48.740;9.132;2023-05-10T05:50:08;12.60;99.90
8178;DHT22;4130;48.740;9.132;2023-05-10T05:52:35;12.60;99.90
8178;DHT22;4130;48.740;9.132;2023-05-10T05:55:03;12.70;99.90
8178;DHT22;4130;48.740;9.132;2023-05-10T05:57:29;12.70;99.90
8178;DHT22;4130;48.740;9.132;2023-05-10T05:59:57;12.80;99.90
8178;DHT22;4130;48.740;9.132;2023-05-10T06:02:25;12.90;99.90
8178;DHT22;4130;48.740;9.132;2023-05-10T06:04:51;13.00;99.90
8178;DHT22;4130;48.740;9.132;2023-05-10T06:07:18;13.10;99.90
8178;DHT22;4130;48.740;9.132;2023-05-10T06:09:45;13.20;99.90
8178;DHT22;4130;48.740;9.132;2023-05-10T06:12:12;13.20;99.90
8178;DHT22;4130;48.740;9.132;2023-05-10T06:14:39;13.30;99.90
8178;DHT22;4130;48.740;9.132;2023-05-10T06:17:07;13.30;99.90
8178;DHT22;4130;48.740;9.132;2023-05-10T06:19:34;13.30;99.90
8178;DHT22;4130;48.740;9.132;2023-05-10T06:22:02;13.30;99.90
8178;DHT22;4130;48.740;9.132;2023-05-10T06:24:29;13.80;99.90
8178;DHT22;4130;48.740;9.132;2023-05-10T06:26:56;13.30;99.90
8178;DHT22;4130;48.740;9.132;2023-05-10T06:29:25;14.50;99.90
8178;DHT22;4130;48.740;9.132;2023-05-10T06:31:52;13.40;99.90
8178;DHT22;4130;48.740;9.132;2023-05-10T06:34:21;13.40;99.90
8178;DHT22;4130;48.740;9.132;2023-05-10T06:36:50;13.30;99.90
8178;DHT22;4130;48.740;9.132;2023-05-10T06:39:17;13.30;99.90
8178;DHT22;4130;48.740;9.132;2023-05-10T06:41:43;13.30;99.90
8178;DHT22;4130;48.740;9.132;2023-05-10T06:44:10;13.20;99.90
8178;DHT22;4130;48.740;9.132;2023-05-10T06:46:41;13.30;99.90
8178;DHT22;4130;48.740;9.132;2023-05-10T06:49:10;13.30;99.90
8178;DHT22;4130;48.740;9.132;2023-05-10T06:51:38;13.20;99.90
8178;DHT22;4130;48.740;9.132;2023-05-10T06:54:07;13.10;99.90
8178;DHT22;4130;48.740;9.132;2023-05-10T06:56:34;13.10;99.90
8178;DHT22;4130;48.740;9.132;2023-05-10T06:59:01;13.10;99.90
8178;DHT22;4130;48.740;9.132;2023-05-10T07:01:28;14.00;99.90
8178;DHT22;4130;48.740;9.132;2023-05-10T07:03:55;13.40;99.90
8178;DHT22;4130;48.740;9.132;2023-05-10T07:06:22;13.50;99.90
8178;DHT22;4130;48.740;9.132;2023-05-10T07:08:50;13.80;99.90
8178;DHT22;4130;48.740;9.132;2023-05-10T07:11:16;13.90;99.90
8178;DHT22;4130;48.740;9.132;2023-05-10T07:13:43;14.10;99.90
8178;DHT22;4130;48.740;9.132;2023-05-10T07:16:13;14.30;99.90
8178;DHT22;4130;48.740;9.132;2023-05-10T07:18:40;14.40;99.90
8178;DHT22;4130;48.740;9.132;2023-05-10T07:21:07;14.30;99.90
8178;DHT22;4130;48.740;9.132;2023-05-10T07:23:34;14.50;99.90
8178;DHT22;4130;48.740;9.132;2023-05-10T07:26:02;14.70;99.90
8178;DHT22;4130;48.740;9.132;2023-05-10T07:28:29;14.70;99.90
8178;DHT22;4130;48.740;9.132;2023-05-10T07:30:56;14.80;99.90
8178;DHT22;4130;48.740;9.132;2023-05-10T07:33:23;14.90;99.90
8178;DHT22;4130;48.740;9.132;2023-05-10T07:35:53;15.00;99.90
8178;DHT22;4130;48.740;9.132;2023-05-10T07:38:21;15.10;99.90
8178;DHT22;4130;48.740;9.132;2023-05-10T07:40:49;15.10;99.90
8178;DHT22;4130;48.740;9.132;2023-05-10T07:43:18;15.20;99.90
8178;DHT22;4130;48.740;9.132;2023-05-10T07:45:45;15.10;99.90
8178;DHT22;4130;48.740;9.132;2023-05-10T07:48:12;15.10;99.90
8178;DHT22;4130;48.740;9.132;2023-05-10T07:50:39;15.10;99.90
8178;DHT22;4130;48.740;9.132;2023-05-10T07:53:06;15.00;99.90
8178;DHT22;4130;48.740;9.132;2023-05-10T07:55:34;15.00;99.90
8178;DHT22;4130;48.740;9.132;2023-05-10T07:58:01;15.10;99.90
8178;DHT22;4130;48.740;9.132;2023-05-10T08:00:29;15.10;99.90
8178;DHT22;4130;48.740;9.132;2023-05-10T08:02:56;15.10;99.90
8178;DHT22;4130;48.740;9.132;2023-05-10T08:05:23;14.90;99.90
8178;DHT22;4130;48.740;9.132;2023-05-10T08:07:50;14.80;99.90
8178;DHT22;4130;48.740;9.132;2023-05-10T08:10:17;16.40;99.90
8178;DHT22;4130;48.740;9.132;2023-05-10T08:12:43;14.90;99.90
8178;DHT22;4130;48.740;9.132;2023-05-10T08:15:11;14.80;99.90
8178;DHT22;4130;48.740;9.132;2023-05-10T08:17:40;15.30;99.90
8178;DHT22;4130;48.740;9.132;2023-05-10T08:20:08;15.00;99.90
8178;DHT22;4130;48.740;9.132;2023-05-10T08:22:36;15.00;99.90
8178;DHT22;4130;48.740;9.132;2023-05-10T08:25:04;15.00;99.90
8178;DHT22;4130;48.740;9.132;2023-05-10T08:27:31;15.10;99.90
8178;DHT22;4130;48.740;9.132;2023-05-10T08:29:58;15.20;99.90
8178;DHT22;4130;48.740;9.132;2023-05-10T08:32:26;15.20;99.90
8178;DHT22;4130;48.740;9.132;2023-05-10T08:34:54;15.20;99.90
8178;DHT22;4130;48.740;9.132;2023-05-10T08:37:22;15.30;99.90
8178;DHT22;4130;48.740;9.132;2023-05-10T08:39:49;15.30;99.90
8178;DHT22;4130;48.740;9.132;2023-05-10T08:42:19;15.40;99.90
8178;DHT22;4130;48.740;9.132;2023-05-10T08:44:49;16.10;99.90
8178;DHT22;4130;48.740;9.132;2023-05-10T08:47:18;15.50;99.90
8178;DHT22;4130;48.740;9.132;2023-05-10T08:49:47;15.60;99.90
8178;DHT22;4130;48.740;9.132;2023-05-10T08:52:18;15.70;99.90
8178;DHT22;4130;48.740;9.132;2023-05-10T08:54:45;15.80;99.90
8178;DHT22;4130;48.740;9.132;2023-05-10T08:57:12;15.90;99.90
8178;DHT22;4130;48.740;9.132;2023-05-10T08:59:39;15.90;99.90
8178;DHT22;4130;48.740;9.132;2023-05-10T09:02:06;15.70;99.90
8178;DHT22;4130;48.740;9.132;2023-05-10T09:04:35;15.80;99.90
8178;DHT22;4130;48.740;9.132;2023-05-10T09:07:01;15.80;99.90
8178;DHT22;4130;48.740;9.132;2023-05-10T09:09:31;15.90;99.90
8178;DHT22;4130;48.740;9.132;2023-05-10T09:11:58;16.10;99.90
8178;DHT22;4130;48.740;9.132;2023-05-10T09:14:25;16.00;99.90
8178;DHT22;4130;48.740;9.132;2023-05-10T09:16:52;16.00;99.90
8178;DHT22;4130;48.740;9.132;2023-05-10T09:19:19;15.90;99.90
8178;DHT22;4130;48.740;9.132;2023-05-10T09:21:46;15.80;99.90
8178;DHT22;4130;48.740;9.132;2023-05-10T09:24:14;15.70;99.90
8178;DHT22;4130;48.740;9.132;2023-05-10T09:26:58;15.40;99.90
8178;DHT22;4130;48.740;9.132;2023-05-10T09:29:25;15.10;99.90
8178;DHT22;4130;48.740;9.132;2023-05-10T09:31:52;15.00;99.90
8178;DHT22;4130;48.740;9.132;2023-05-10T09:34:28;15.10;99.90
8178;DHT22;4130;48.740;9.132;2023-05-10T09:36:56;15.30;99.90
8178;DHT22;4130;48.740;9.132;2023-05-10T09:39:30;15.60;99.90
8178;DHT22;4130;48.740;9.132;2023-05-10T09:41:59;15.80;99.90
8178;DHT22;4130;48.740;9.132;2023-05-10T09:44:29;16.00;99.90
8178;DHT22;4130;48.740;9.132;2023-05-10T09:46:57;16.20;99.90
8178;DHT22;4130;48.740;9.132;2023-05-10T09:49:24;16.40;99.90
8178;DHT22;4130;48.740;9.132;2023-05-10T09:52:01;16.80;99.90
8178;DHT22;4130;48.740;9.132;2023-05-10T09:54:29;17.10;99.90
8178;DHT22;4130;48.740;9.132;2023-05-10T09:56:56;17.00;99.90
8178;DHT22;4130;48.740;9.132;2023-05-10T09:59:27;17.20;99.90
8178;DHT22;4130;48.740;9.132;2023-05-10T10:01:56;17.30;99.90
8178;DHT22;4130;48.740;9.132;2023-05-10T10:04:23;18.30;99.90
8178;DHT22;4130;48.740;9.132;2023-05-10T10:07:01;17.50;99.90
8178;DHT22;4130;48.740;9.132;2023-05-10T10:09:31;17.50;99.90
8178;DHT22;4130;48.740;9.132;2023-05-10T10:11:59;17.50;99.90
8178;DHT22;4130;48.740;9.132;2023-05-10T10:14:28;17.70;99.90
8178;DHT22;4130;48.740;9.132;2023-05-10T10:16:55;17.80;99.90
8178;DHT22;4130;48.740;9.132;2023-05-10T10:19:22;17.80;99.90
8178;DHT22;4130;48.740;9.132;2023-05-10T10:21:50;17.60;99.90
8178;DHT22;4130;48.740;9.132;2023-05-10T10:24:16;17.40;99.90
8178;DHT22;4130;48.740;9.132;2023-05-10T10:26:44;17.30;99.90
8178;DHT22;4130;48.740;9.132;2023-05-10T10:29:21;17.10;99.90
8178;DHT22;4130;48.740;9.132;2023-05-10T10:31:57;16.90;99.90
8178;DHT22;4130;48.740;9.132;2023-05-10T10:34:29;16.90;99.90
8178;DHT22;4130;48.740;9.132;2023-05-10T10:36:57;17.10;99.90
8178;DHT22;4130;48.740;9.132;2023-05-10T10:39:30;17.20;99.90
8178;DHT22;4130;48.740;9.132;2023-05-10T10:41:59;17.40;99.90
8178;DHT22;4130;48.740;9.132;2023-05-10T10:44:33;17.50;99.90
8178;DHT22;4130;48.740;9.132;2023-05-10T10:50:05;17.90;99.90
8178;DHT22;4130;48.740;9.132;2023-05-10T10:52:33;18.10;99.90
8178;DHT22;4130;48.740;9.132;2023-05-10T10:55:02;17.70;99.90
8178;DHT22;4130;48.740;9.132;2023-05-10T10:57:43;17.00;99.90
8178;DHT22;4130;48.740;9.132;2023-05-10T11:00:28;16.30;99.90
8178;DHT22;4130;48.740;9.132;2023-05-10T11:03:01;15.90;99.90
8178;DHT22;4130;48.740;9.132;2023-05-10T11:05:40;16.60;99.90
8178;DHT22;4130;48.740;9.132;2023-05-10T11:08:10;15.30;99.90
8178;DHT22;4130;48.740;9.132;2023-05-10T11:10:38;15.30;99.90
8178;DHT22;4130;48.740;9.132;2023-05-10T11:13:06;15.60;99.90
8178;DHT22;4130;48.740;9.132;2023-05-10T11:15:35;15.80;99.90
8178;DHT22;4130;48.740;9.132;2023-05-10T11:18:19;15.90;99.90
8178;DHT22;4130;48.740;9.132;2023-05-10T11:20:50;16.00;99.90
8178;DHT22;4130;48.740;9.132;2023-05-10T11:23:17;16.10;99.90
8178;DHT22;4130;48.740;9.132;2023-05-10T11:25:45;15.80;99.90
8178;DHT22;4130;48.740;9.132;2023-05-10T11:28:12;15.80;99.90
8178;DHT22;4130;48.740;9.132;2023-05-10T11:30:40;15.60;99.90
8178;DHT22;4130;48.740;9.132;2023-05-10T11:33:08;15.50;99.90
8178;DHT22;4130;48.740;9.132;2023-05-10T11:35:39;16.40;99.90
8178;DHT22;4130;48.740;9.132;2023-05-10T11:38:07;15.30;99.90
8178;DHT22;4130;48.740;9.132;2023-05-10T11:40:36;16.60;99.90
8178;DHT22;4130;48.740;9.132;2023-05-10T11:43:03;15.50;99.90
8178;DHT22;4130;48.740;9.132;2023-05-10T11:45:32;15.60;99.90
8178;DHT22;4130;48.740;9.132;2023-05-10T11:47:59;15.60;99.90
8178;DHT22;4130;48.740;9.132;2023-05-10T11:50:27;17.10;99.90
8178;DHT22;4130;48.740;9.132;2023-05-10T11:52:56;15.40;99.90
8178;DHT22;4130;48.740;9.132;2023-05-10T11:55:24;15.30;99.90
8178;DHT22;4130;48.740;9.132;2023-05-10T11:57:52;15.30;99.90
8178;DHT22;4130;48.740;9.132;2023-05-10T12:00:19;15.20;99.90
8178;DHT22;4130;48.740;9.132;2023-05-10T12:02:46;15.30;99.90
8178;DHT22;4130;48.740;9.132;2023-05-10T12:05:13;16.00;99.90
8178;DHT22;4130;48.740;9.132;2023-05-10T12:07:40;15.70;99.90
8178;DHT22;4130;48.740;9.132;2023-05-10T12:10:10;16.10;99.90
8178;DHT22;4130;48.740;9.132;2023-05-10T12:12:41;16.40;99.90
8178;DHT22;4130;48.740;9.132;2023-05-10T12:15:17;17.00;99.90
8178;DHT22;4130;48.740;9.132;2023-05-10T12:17:45;17.40;99.90
8178;DHT22;4130;48.740;9.132;2023-05-10T12:20:16;17.80;99.90
8178;DHT22;4130;48.740;9.132;2023-05-10T12:22:53;18.00;99.90
8178;DHT22;4130;48.740;9.132;2023-05-10T12:25:23;17.80;99.90
8178;DHT22;4130;48.740;9.132;2023-05-10T12:27:54;17.50;99.90
8178;DHT22;4130;48.740;9.132;2023-05-10T12:30:22;17.20;99.90
8178;DHT22;4130;48.740;9.132;2023-05-10T12:32:50;16.80;99.90
8178;DHT22;4130;48.740;9.132;2023-05-10T12:35:17;16.70;99.90
8178;DHT22;4130;48.740;9.132;2023-05-10T12:37:47;16.50;99.90
8178;DHT22;4130;48.740;9.132;2023-05-10T12:40:14;16.60;99.90
8178;DHT22;4130;48.740;9.132;2023-05-10T12:42:43;16.70;99.90
8178;DHT22;4130;48.740;9.132;2023-05-10T12:45:11;16.60;99.90
8178;DHT22;4130;48.740;9.132;2023-05-10T12:47:38;16.60;99.90
8178;DHT22;4130;48.740;9.132;2023-05-10T12:50:06;16.30;99.90
8178;DHT22;4130;48.740;9.132;2023-05-10T12:52:33;16.10;99.90
8178;DHT22;4130;48.740;9.132;2023-05-10T12:55:00;15.90;99.90
8178;DHT22;4130;48.740;9.132;2023-05-10T12:57:28;15.70;99.90
8178;DHT22;4130;48.740;9.132;2023-05-10T12:59:56;15.50;99.90
8178;DHT22;4130;48.740;9.132;2023-05-10T13:02:23;15.50;99.90
8178;DHT22;4130;48.740;9.132;2023-05-10T13:04:50;15.60;99.90
8178;DHT22;4130;48.740;9.132;2023-05-10T13:07:17;15.70;99.90
8178;DHT22;4130;48.740;9.132;2023-05-10T13:09:46;17.40;99.90
8178;DHT22;4130;48.740;9.132;2023-05-10T13:12:12;16.20;99.90
8178;DHT22;4130;48.740;9.132;2023-05-10T13:14:39;16.60;99.90
8178;DHT22;4130;48.740;9.132;2023-05-10T13:17:08;17.30;99.90
8178;DHT22;4130;48.740;9.132;2023-05-10T13:19:35;17.00;99.90
8178;DHT22;4130;48.740;9.132;2023-05-10T13:22:02;17.00;99.90
8178;DHT22;4130;48.740;9.132;2023-05-10T13:24:29;17.20;99.90
8178;DHT22;4130;48.740;9.132;2023-05-10T13:26:57;17.50;99.90
8178;DHT22;4130;48.740;9.132;2023-05-10T13:29:24;17.60;99.90
8178;DHT22;4130;48.740;9.132;2023-05-10T13:31:51;17.80;99.90
8178;DHT22;4130;48.740;9.132;2023-05-10T13:34:19;17.60;99.90
8178;DHT22;4130;48.740;9.132;2023-05-10T13:36:47;17.50;99.90
8178;DHT22;4130;48.740;9.132;2023-05-10T13:39:16;17.20;99.90
8178;DHT22;4130;48.740;9.132;2023-05-10T13:41:43;16.90;99.90
8178;DHT22;4130;48.740;9.132;2023-05-10T13:44:12;16.60;99.90
8178;DHT22;4130;48.740;9.132;2023-05-10T13:46:40;16.40;99.90
8178;DHT22;4130;48.740;9.132;2023-05-10T13:49:08;16.30;99.90
8178;DHT22;4130;48.740;9.132;2023-05-10T13:51:38;16.40;99.90
8178;DHT22;4130;48.740;9.132;2023-05-10T13:54:05;16.60;99.90
8178;DHT22;4130;48.740;9.132;2023-05-10T13:56:32;17.00;99.90
8178;DHT22;4130;48.740;9.132;2023-05-10T13:59:00;17.30;99.90
8178;DHT22;4130;48.740;9.132;2023-05-10T14:01:27;17.70;99.90
8178;DHT22;4130;48.740;9.132;2023-05-10T14:03:54;17.50;99.90
8178;DHT22;4130;48.740;9.132;2023-05-10T14:06:20;17.70;99.90
8178;DHT22;4130;48.740;9.132;2023-05-10T14:08:49;18.00;99.90
8178;DHT22;4130;48.740;9.132;2023-05-10T14:11:15;18.30;99.90
8178;DHT22;4130;48.740;9.132;2023-05-10T14:13:42;17.90;99.90
8178;DHT22;4130;48.740;9.132;2023-05-10T14:16:09;17.90;99.90
8178;DHT22;4130;48.740;9.132;2023-05-10T14:18:37;17.80;99.90
8178;DHT22;4130;48.740;9.132;2023-05-10T14:21:03;17.70;99.90
8178;DHT22;4130;48.740;9.132;2023-05-10T14:23:30;17.60;99.90
8178;DHT22;4130;48.740;9.132;2023-05-10T14:25:58;17.40;99.90
8178;DHT22;4130;48.740;9.132;2023-05-10T14:28:25;17.30;99.90
8178;DHT22;4130;48.740;9.132;2023-05-10T14:30:52;17.30;99.90
8178;DHT22;4130;48.740;9.132;2023-05-10T14:33:19;17.20;99.90
8178;DHT22;4130;48.740;9.132;2023-05-10T14:35:46;17.20;99.90
8178;DHT22;4130;48.740;9.132;2023-05-10T14:38:13;17.20;99.90
8178;DHT22;4130;48.740;9.132;2023-05-10T14:40:40;17.50;99.90
8178;DHT22;4130;48.740;9.132;2023-05-10T14:43:08;17.50;99.90
8178;DHT22;4130;48.740;9.132;2023-05-10T14:45:35;17.50;99.90
8178;DHT22;4130;48.740;9.132;2023-05-10T14:48:02;17.40;99.80
8178;DHT22;4130;48.740;9.132;2023-05-10T14:50:30;17.30;99.90
8178;DHT22;4130;48.740;9.132;2023-05-10T14:52:57;17.30;99.90
8178;DHT22;4130;48.740;9.132;2023-05-10T14:55:24;17.20;99.90
8178;DHT22;4130;48.740;9.132;2023-05-10T14:57:51;17.30;99.90
8178;DHT22;4130;48.740;9.132;2023-05-10T15:00:20;17.40;99.90
8178;DHT22;4130;48.740;9.132;2023-05-10T15:02:47;17.40;99.90
8178;DHT22;4130;48.740;9.132;2023-05-10T15:05:14;17.60;99.90
8178;DHT22;4130;48.740;9.132;2023-05-10T15:07:42;17.70;99.90
8178;DHT22;4130;48.740;9.132;2023-05-10T15:10:10;17.80;99.90
8178;DHT22;4130;48.740;9.132;2023-05-10T15:12:39;17.90;99.90
8178;DHT22;4130;48.740;9.132;2023-05-10T15:15:07;17.90;99.90
8178;DHT22;4130;48.740;9.132;2023-05-10T15:17:36;17.80;99.70
8178;DHT22;4130;48.740;9.132;2023-05-10T15:20:03;17.70;99.90
8178;DHT22;4130;48.740;9.132;2023-05-10T15:22:30;17.50;99.70
8178;DHT22;4130;48.740;9.132;2023-05-10T15:24:58;17.50;99.90
8178;DHT22;4130;48.740;9.132;2023-05-10T15:27:25;17.40;99.90
8178;DHT22;4130;48.740;9.132;2023-05-10T15:29:51;18.10;99.90
8178;DHT22;4130;48.740;9.132;2023-05-10T15:32:19;17.20;99.90
8178;DHT22;4130;48.740;9.132;2023-05-10T15:34:48;17.20;99.90
8178;DHT22;4130;48.740;9.132;2023-05-10T15:37:15;17.10;99.90
8178;DHT22;4130;48.740;9.132;2023-05-10T15:39:43;17.20;99.90
8178;DHT22;4130;48.740;9.132;2023-05-10T15:42:10;17.20;99.90
8178;DHT22;4130;48.740;9.132;2023-05-10T15:44:37;17.30;99.90
8178;DHT22;4130;48.740;9.132;2023-05-10T15:47:04;17.30;99.90
8178;DHT22;4130;48.740;9.132;2023-05-10T15:49:31;17.20;99.90
8178;DHT22;4130;48.740;9.132;2023-05-10T15:52:00;17.10;99.90
8178;DHT22;4130;48.740;9.132;2023-05-10T15:54:27;17.30;99.40
8178;DHT22;4130;48.740;9.132;2023-05-10T15:56:54;17.20;99.80
8178;DHT22;4130;48.740;9.132;2023-05-10T15:59:21;17.20;99.90
8178;DHT22;4130;48.740;9.132;2023-05-10T16:01:48;17.20;99.80
8178;DHT22;4130;48.740;9.132;2023-05-10T16:04:15;17.20;99.50
8178;DHT22;4130;48.740;9.132;2023-05-10T16:06:42;17.30;99.80
8178;DHT22;4130;48.740;9.132;2023-05-10T16:09:11;16.30;99.20
8178;DHT22;4130;48.740;9.132;2023-05-10T16:11:39;17.20;98.70
8178;DHT22;4130;48.740;9.132;2023-05-10T16:14:06;17.10;99.40